Agonistis — SVBC3 — position and weather

sailwx.info

Track history (hours):
 
Tides and Currents Weather Stations Pressure Air Temp Water Temp Dewpoint Dewpoint Depression Visibility Wind Speed Wind Dir Waves Ship Positions

Agonistis

Last reported at 2015-Jul-25 16:28 UTC. Time now 2015-Aug-03 00:26 UTC.
Position N 26°18' E 055°53'.
Warning: this ship's position is 8 days out of date.

Length 196 m; draft 7.1 m.

Type: Cargo ship. MMSI: 241048000.

Date/timePositionNaut miles runAvg speedWind from/ knotsBaromVisibWave heightAir tempDewpointWater temp
2015-Jul-25 16:28N 26°18' E 055°53'3512.2
2015-Jul-25 13:34N 26°06' E 055°16'7212.0
2015-Jul-25 07:33N 26°10' E 053°56'1212.2
2015-Jul-25 06:32N 26°09' E 053°42'3712.5
2015-Jul-25 03:33N 26°07' E 053°00'1313.2
2015-Jul-25 02:33N 26°07' E 052°46'1313.2
2015-Jul-25 01:34N 26°06' E 052°31'3013.5
2015-Jul-24 23:20N 25°56' E 051°59'10 4.9
2015-Jul-24 21:19N 25°52' E 051°50'  
Track history (hours):
 
Tides and Currents Weather Stations Pressure Air Temp Water Temp Dewpoint Dewpoint Depression Visibility Wind Speed Wind Dir Waves Ship Positions

Agonistis

Last reported at 2015-Jul-25 16:28 UTC. Time now 2015-Aug-03 00:26 UTC.
Position N 26°18' E 055°53'.
Warning: this ship's position is 8 days out of date.

Length 196 m; draft 7.1 m.

Type: Cargo ship. MMSI: 241048000.

Date/timePositionNaut miles runAvg speedWind from/ knotsBaromVisibWave heightAir tempDewpointWater temp
2015-Jul-25 16:28N 26°18' E 055°53'3512.2
2015-Jul-25 13:34N 26°06' E 055°16'7212.0
2015-Jul-25 07:33N 26°10' E 053°56'1212.2
2015-Jul-25 06:32N 26°09' E 053°42'3712.5
2015-Jul-25 03:33N 26°07' E 053°00'1313.2
2015-Jul-25 02:33N 26°07' E 052°46'1313.2
2015-Jul-25 01:34N 26°06' E 052°31'3013.5
2015-Jul-24 23:20N 25°56' E 051°59'10 4.9
2015-Jul-24 21:19N 25°52' E 051°50'  

Dump ship's entire track history